createdAt,value
2019-02-26T00:02:25.941Z,14.57
2019-02-26T00:04:54.653Z,14.20
2019-02-26T00:07:25.204Z,15.40
2019-02-26T00:09:53.594Z,14.40
2019-02-26T00:12:23.854Z,17.57
2019-02-26T00:14:54.247Z,15.97
2019-02-26T00:17:21.836Z,14.53
2019-02-26T00:19:49.395Z,18.07
2019-02-26T00:22:18.240Z,15.10
2019-02-26T00:24:46.617Z,13.97
2019-02-26T00:27:14.322Z,15.07
2019-02-26T00:29:41.948Z,15.43
2019-02-26T00:32:11.610Z,16.40
2019-02-26T00:34:39.431Z,16.50
2019-02-26T00:37:08.523Z,16.93
2019-02-26T00:39:36.233Z,15.60
2019-02-26T00:42:05.615Z,13.93
2019-02-26T00:44:35.421Z,18.80
2019-02-26T00:47:04.824Z,14.57
2019-02-26T00:49:32.049Z,14.87
2019-02-26T00:51:59.505Z,14.60
2019-02-26T00:54:29.105Z,13.53
2019-02-26T00:56:59.076Z,14.73
2019-02-26T00:59:25.783Z,14.30
2019-02-26T01:01:54.742Z,14.93
2019-02-26T01:04:22.645Z,13.57
2019-02-26T01:06:50.216Z,13.23
2019-02-26T01:09:18.849Z,14.13
2019-02-26T01:11:47.617Z,14.37
2019-02-26T01:14:18.046Z,14.27
2019-02-26T01:16:46.140Z,17.83
2019-02-26T01:19:15.282Z,13.73
2019-02-26T01:21:44.190Z,16.50
2019-02-26T01:24:11.759Z,15.67
2019-02-26T01:26:42.549Z,13.73
2019-02-26T01:29:08.749Z,15.17
2019-02-26T01:31:36.338Z,18.80
2019-02-26T01:34:03.832Z,14.27
2019-02-26T01:36:31.357Z,19.10
2019-02-26T01:38:58.817Z,16.23
2019-02-26T01:41:27.289Z,16.53
2019-02-26T01:43:55.068Z,16.10
2019-02-26T01:46:22.671Z,17.10
2019-02-26T01:48:50.210Z,14.67
2019-02-26T01:51:19.372Z,18.90
2019-02-26T01:53:49.832Z,16.83
2019-02-26T01:56:19.943Z,17.20
2019-02-26T01:58:56.333Z,16.07
2019-02-26T02:01:19.210Z,13.73
2019-02-26T02:03:48.263Z,18.23
2019-02-26T02:06:17.724Z,16.30
2019-02-26T02:08:45.933Z,16.23
2019-02-26T02:11:14.811Z,14.70
2019-02-26T02:13:43.862Z,18.37
2019-02-26T02:16:11.492Z,13.47
2019-02-26T02:18:41.232Z,13.80
2019-02-26T02:21:10.228Z,14.17
2019-02-26T02:23:37.766Z,15.50
2019-02-26T02:26:07.119Z,15.33
2019-02-26T02:28:35.618Z,14.37
2019-02-26T02:31:03.531Z,15.67
2019-02-26T02:33:33.084Z,17.37
2019-02-26T02:36:00.506Z,13.37
2019-02-26T02:38:29.840Z,12.97
2019-02-26T02:40:57.429Z,14.10
2019-02-26T02:43:24.874Z,12.67
2019-02-26T02:45:53.159Z,13.17
2019-02-26T02:48:21.781Z,17.77
2019-02-26T02:50:49.259Z,17.87
2019-02-26T02:53:20.445Z,14.90
2019-02-26T02:55:47.073Z,14.87
2019-02-26T02:58:18.257Z,16.97
2019-02-26T03:00:46.189Z,15.10
2019-02-26T03:03:14.424Z,12.97
2019-02-26T03:05:43.803Z,13.23
2019-02-26T03:08:13.959Z,12.67
2019-02-26T03:10:43.099Z,12.50
2019-02-26T03:13:11.155Z,18.43
2019-02-26T03:15:38.571Z,11.40
2019-02-26T03:18:08.576Z,14.00
2019-02-26T03:20:40.169Z,12.73
2019-02-26T03:23:09.866Z,15.07
2019-02-26T03:25:37.251Z,14.60
2019-02-26T03:28:04.933Z,13.13
2019-02-26T03:30:38.812Z,12.50
2019-02-26T03:33:04.432Z,14.13
2019-02-26T03:35:32.484Z,13.23
2019-02-26T03:38:01.397Z,13.87
2019-02-26T03:40:30.722Z,15.83
2019-02-26T03:42:58.977Z,14.83
2019-02-26T03:45:26.524Z,12.73
2019-02-26T03:47:55.450Z,17.17
2019-02-26T03:50:26.346Z,18.83
2019-02-26T03:52:52.989Z,17.63
2019-02-26T03:55:20.540Z,13.30
2019-02-26T03:57:50.600Z,15.07
2019-02-26T04:00:19.948Z,14.23
2019-02-26T04:02:49.060Z,13.20
2019-02-26T04:05:16.597Z,14.83
2019-02-26T04:07:44.194Z,14.40
2019-02-26T04:10:12.649Z,15.67
2019-02-26T04:12:42.246Z,15.40
2019-02-26T04:15:12.533Z,13.00
2019-02-26T04:17:42.187Z,13.10
2019-02-26T04:20:10.240Z,12.90
2019-02-26T04:22:40.204Z,12.60
2019-02-26T04:25:37.168Z,14.37
2019-02-26T04:28:11.483Z,13.63
2019-02-26T04:31:10.328Z,12.97
2019-02-26T04:33:49.962Z,11.87
2019-02-26T04:37:04.563Z,14.33
2019-02-26T04:40:15.181Z,14.53
2019-02-26T04:43:33.417Z,16.30
2019-02-26T04:46:26.057Z,14.20
2019-02-26T04:48:55.083Z,16.40
2019-02-26T04:51:22.607Z,14.83
2019-02-26T04:53:51.782Z,15.30
2019-02-26T04:56:19.745Z,14.20
2019-02-26T04:58:47.782Z,13.67
2019-02-26T05:01:18.411Z,15.00
2019-02-26T05:03:45.010Z,13.63
2019-02-26T05:06:12.521Z,17.30
2019-02-26T05:08:40.737Z,12.90
2019-02-26T05:11:14.877Z,13.83
2019-02-26T05:13:39.062Z,15.07
2019-02-26T05:16:08.460Z,15.07
2019-02-26T05:18:36.025Z,14.50
2019-02-26T05:21:05.226Z,13.70
2019-02-26T05:23:35.832Z,14.70
2019-02-26T05:26:05.629Z,12.20
2019-02-26T05:28:35.325Z,14.60
2019-02-26T05:31:17.246Z,17.33
2019-02-26T05:33:44.184Z,18.90
2019-02-26T05:36:14.225Z,15.50
2019-02-26T05:38:41.174Z,14.50
2019-02-26T05:41:08.778Z,14.50
2019-02-26T05:43:36.359Z,16.03
2019-02-26T05:46:04.148Z,14.77
2019-02-26T05:48:31.742Z,13.57
2019-02-26T05:51:02.943Z,15.90
2019-02-26T05:53:29.788Z,16.97
2019-02-26T05:55:57.271Z,13.60
2019-02-26T05:58:24.792Z,15.20
2019-02-26T06:00:52.817Z,18.70
2019-02-26T06:03:20.404Z,15.77
2019-02-26T06:05:49.012Z,19.20
2019-02-26T06:08:17.352Z,15.83
2019-02-26T06:10:45.177Z,16.80
2019-02-26T06:13:13.590Z,17.00
2019-02-26T06:15:43.165Z,16.70
2019-02-26T06:18:10.777Z,15.57
2019-02-26T06:20:38.422Z,19.70
2019-02-26T06:23:06.177Z,13.97
2019-02-26T06:25:33.754Z,17.73
2019-02-26T06:28:04.453Z,13.30
2019-02-26T06:30:30.903Z,16.10
2019-02-26T06:33:02.107Z,15.90
2019-02-26T06:35:28.059Z,15.37
2019-02-26T06:37:55.542Z,16.63
2019-02-26T06:40:23.059Z,14.63
2019-02-26T06:42:50.663Z,20.27
2019-02-26T06:45:18.249Z,14.93
2019-02-26T06:47:48.637Z,16.33
2019-02-26T06:50:16.594Z,17.20
2019-02-26T06:52:47.330Z,17.17
2019-02-26T06:55:14.146Z,14.60
2019-02-26T06:57:43.976Z,14.87
2019-02-26T07:00:12.311Z,17.30
2019-02-26T07:02:40.026Z,15.20
2019-02-26T07:05:09.745Z,18.07
2019-02-26T07:07:37.379Z,15.53
2019-02-26T07:10:06.119Z,14.83
2019-02-26T07:12:34.826Z,16.47
2019-02-26T07:15:02.478Z,15.80
2019-02-26T07:17:33.732Z,14.60
2019-02-26T07:20:00.409Z,17.00
2019-02-26T07:22:29.344Z,16.87
2019-02-26T07:24:57.076Z,14.47
2019-02-26T07:27:26.337Z,16.33
2019-02-26T07:29:54.375Z,15.83
2019-02-26T07:32:22.751Z,20.17
2019-02-26T07:34:52.185Z,23.50
2019-02-26T07:37:20.058Z,18.23
2019-02-26T07:39:49.599Z,18.93
2019-02-26T07:42:37.276Z,17.20
2019-02-26T07:45:14.655Z,16.27
2019-02-26T07:47:36.299Z,16.50
2019-02-26T07:50:06.676Z,14.80
2019-02-26T07:52:34.249Z,14.73
2019-02-26T07:55:03.574Z,17.87
2019-02-26T07:57:31.176Z,14.27
2019-02-26T07:59:59.859Z,13.80
2019-02-26T08:02:27.828Z,14.73
2019-02-26T08:04:56.935Z,13.10
2019-02-26T08:07:28.151Z,13.77
2019-02-26T08:09:55.512Z,16.77
2019-02-26T08:12:23.179Z,15.27
2019-02-26T08:14:50.740Z,18.50
2019-02-26T08:17:18.362Z,20.70
2019-02-26T08:19:47.299Z,19.53
2019-02-26T08:22:15.573Z,19.13
2019-02-26T08:24:43.256Z,20.77
2019-02-26T08:27:13.583Z,21.60
2019-02-26T08:29:43.148Z,18.70
2019-02-26T08:32:13.723Z,18.57
2019-02-26T08:34:40.327Z,20.47
2019-02-26T08:37:08.033Z,17.30
2019-02-26T08:39:35.654Z,17.30
2019-02-26T08:42:06.981Z,17.80
2019-02-26T08:44:34.692Z,17.03
2019-02-26T08:47:06.061Z,20.10
2019-02-26T08:49:35.127Z,19.07
2019-02-26T08:52:02.403Z,18.90
2019-02-26T08:54:33.182Z,19.13
2019-02-26T08:57:00.508Z,14.70
2019-02-26T08:59:28.114Z,17.37
2019-02-26T09:01:55.615Z,17.67
2019-02-26T09:04:23.912Z,14.83
2019-02-26T09:06:54.693Z,14.63
2019-02-26T09:09:25.340Z,15.77
2019-02-26T09:11:54.804Z,16.83
2019-02-26T09:14:21.978Z,17.83
2019-02-26T09:16:51.903Z,14.33
2019-02-26T09:19:18.866Z,16.70
2019-02-26T09:21:47.816Z,15.77
2019-02-26T09:24:15.946Z,16.30
2019-02-26T09:26:43.636Z,16.23
2019-02-26T09:29:14.969Z,15.70
2019-02-26T09:31:42.523Z,20.53
2019-02-26T09:34:10.114Z,15.00
2019-02-26T09:36:38.749Z,16.17
2019-02-26T09:39:19.240Z,18.33
2019-02-26T09:41:47.110Z,16.73
2019-02-26T09:44:14.703Z,17.77
2019-02-26T09:46:43.922Z,21.17
2019-02-26T09:49:12.809Z,16.17
2019-02-26T09:51:40.446Z,17.50
2019-02-26T09:54:10.936Z,13.07
2019-02-26T09:56:39.705Z,15.17
2019-02-26T09:59:09.672Z,15.53
2019-02-26T10:01:37.823Z,16.50
2019-02-26T10:04:06.099Z,15.37
2019-02-26T10:06:34.904Z,14.57
2019-02-26T10:09:05.075Z,15.63
2019-02-26T10:11:33.576Z,15.43
2019-02-26T10:14:02.901Z,16.37
2019-02-26T10:16:32.954Z,18.87
2019-02-26T10:19:00.060Z,15.57
2019-02-26T10:21:27.749Z,16.50
2019-02-26T10:23:56.869Z,15.97
2019-02-26T10:29:07.844Z,15.77
2019-02-26T10:31:40.210Z,15.03
2019-02-26T10:34:07.949Z,16.87
2019-02-26T10:36:40.783Z,15.07
2019-02-26T10:39:07.483Z,14.90
2019-02-26T10:41:39.290Z,16.43
2019-02-26T10:44:06.306Z,20.03
2019-02-26T10:46:37.148Z,19.70
2019-02-26T10:49:05.137Z,22.73
2019-02-26T10:51:34.562Z,18.50
2019-02-26T10:54:02.817Z,21.63
2019-02-26T10:56:35.372Z,18.33
2019-02-26T10:59:03.572Z,22.97
2019-02-26T11:01:33.670Z,20.33
2019-02-26T11:04:01.416Z,19.17
2019-02-26T11:06:30.544Z,20.10
2019-02-26T11:09:01.829Z,18.83
2019-02-26T11:11:32.782Z,20.57
2019-02-26T11:14:01.489Z,19.23
2019-02-26T11:16:31.028Z,20.97
2019-02-26T11:18:59.234Z,22.67
2019-02-26T11:21:27.849Z,20.10
2019-02-26T11:23:55.550Z,19.33
2019-02-26T11:26:23.212Z,19.90
2019-02-26T11:28:50.887Z,20.07
2019-02-26T11:31:20.120Z,22.00
2019-02-26T11:33:48.234Z,20.73
2019-02-26T11:36:16.426Z,19.67
2019-02-26T11:38:44.525Z,19.30
2019-02-26T11:41:13.458Z,21.83
2019-02-26T11:43:41.061Z,18.67
2019-02-26T11:46:08.808Z,17.13
2019-02-26T11:48:36.421Z,18.47
2019-02-26T11:51:04.293Z,17.37
2019-02-26T11:53:31.945Z,17.73
2019-02-26T11:56:01.872Z,18.80
2019-02-26T11:58:29.121Z,21.00
2019-02-26T12:01:00.086Z,17.60
2019-02-26T12:03:30.437Z,19.13
2019-02-26T12:06:00.576Z,20.00
2019-02-26T12:08:26.608Z,19.00
2019-02-26T12:10:57.641Z,23.03
2019-02-26T12:13:25.082Z,23.10
2019-02-26T12:15:52.936Z,22.60
2019-02-26T12:18:22.496Z,18.97
2019-02-26T12:20:50.138Z,20.63
2019-02-26T12:23:19.839Z,19.10
2019-02-26T12:25:47.198Z,20.37
2019-02-26T12:28:16.027Z,19.30
2019-02-26T12:30:46.598Z,21.67
2019-02-26T12:33:14.810Z,17.83
2019-02-26T12:35:43.641Z,23.07
2019-02-26T12:38:18.199Z,20.33
2019-02-26T12:40:46.323Z,22.00
2019-02-26T12:43:12.543Z,20.93
2019-02-26T12:45:40.842Z,21.40
2019-02-26T12:48:12.610Z,20.57
2019-02-26T12:53:12.605Z,18.47
2019-02-26T12:55:41.763Z,16.53
2019-02-26T12:58:07.790Z,18.20
2019-02-26T13:00:37.750Z,17.03
2019-02-26T13:03:05.569Z,19.50
2019-02-26T13:05:35.241Z,18.83
2019-02-26T13:08:03.724Z,20.43
2019-02-26T13:10:31.352Z,18.20
2019-02-26T13:13:02.338Z,16.57
2019-02-26T13:15:28.394Z,20.90
2019-02-26T13:17:57.728Z,19.10
2019-02-26T13:20:25.239Z,20.23
2019-02-26T13:22:56.513Z,17.47
2019-02-26T13:25:26.358Z,14.33
2019-02-26T13:27:51.900Z,17.07
2019-02-26T13:30:21.007Z,18.20
2019-02-26T13:32:56.182Z,17.33
2019-02-26T13:35:19.374Z,19.27
2019-02-26T13:37:47.814Z,15.33
2019-02-26T13:40:18.293Z,18.33
2019-02-26T13:42:49.899Z,15.13
2019-02-26T13:45:18.673Z,17.07
2019-02-26T13:47:46.526Z,16.63
2019-02-26T13:50:21.755Z,15.63
2019-02-26T13:52:49.424Z,14.27
2019-02-26T13:55:29.285Z,13.30
2019-02-26T13:57:56.949Z,15.43
2019-02-26T14:00:26.801Z,12.17
2019-02-26T14:02:54.049Z,12.33
2019-02-26T14:05:22.770Z,12.53
2019-02-26T14:07:50.641Z,15.03
2019-02-26T14:10:18.266Z,11.30
2019-02-26T14:12:46.006Z,12.67
2019-02-26T14:15:17.123Z,11.60
2019-02-26T14:17:44.809Z,12.90
2019-02-26T14:20:12.573Z,11.97
2019-02-26T14:22:40.303Z,12.50
2019-02-26T14:25:08.473Z,11.67
2019-02-26T14:27:36.353Z,11.90
2019-02-26T14:30:04.732Z,10.00
2019-02-26T14:32:33.710Z,12.47
2019-02-26T14:35:02.731Z,11.93
2019-02-26T14:37:31.850Z,12.10
2019-02-26T14:39:59.593Z,12.70
2019-02-26T14:42:40.015Z,12.57
2019-02-26T14:45:10.472Z,12.13
2019-02-26T14:47:38.180Z,13.17
2019-02-26T14:50:07.760Z,13.40
2019-02-26T14:52:35.393Z,14.07
2019-02-26T14:55:05.159Z,11.90
2019-02-26T14:57:34.136Z,16.33
2019-02-26T15:00:01.851Z,16.33
2019-02-26T15:02:32.504Z,13.37
2019-02-26T15:05:00.303Z,14.73
2019-02-26T15:07:30.584Z,14.60
2019-02-26T15:09:58.420Z,16.53
2019-02-26T15:12:26.224Z,14.47
2019-02-26T15:14:53.959Z,13.70
2019-02-26T15:17:22.112Z,14.13
2019-02-26T15:19:53.150Z,15.63
2019-02-26T15:22:19.264Z,14.03
2019-02-26T15:24:46.953Z,15.57
2019-02-26T15:27:14.618Z,14.03
2019-02-26T15:29:42.296Z,13.60
2019-02-26T15:32:09.945Z,15.10
2019-02-26T15:34:37.633Z,15.10
2019-02-26T15:37:05.396Z,15.80
2019-02-26T15:39:33.223Z,14.98
2019-02-26T15:42:02.679Z,14.85
2019-02-26T15:44:30.423Z,16.42
2019-02-26T15:46:59.613Z,13.45
2019-02-26T15:49:28.539Z,16.05
2019-02-26T15:51:56.255Z,15.88
2019-02-26T15:54:25.291Z,14.47
2019-02-26T15:56:53.330Z,15.55
2019-02-26T15:59:20.999Z,16.40
2019-02-26T16:01:48.635Z,15.53
2019-02-26T16:04:16.306Z,14.80
2019-02-26T16:06:44.171Z,14.10
2019-02-26T16:09:12.506Z,16.60
2019-02-26T16:11:41.795Z,13.30
2019-02-26T16:14:09.449Z,15.33
2019-02-26T16:16:37.202Z,14.37
2019-02-26T16:19:04.850Z,16.87
2019-02-26T16:21:32.557Z,13.73
2019-02-26T16:24:00.426Z,12.67
2019-02-26T16:26:28.039Z,13.87
2019-02-26T16:28:56.458Z,14.63
2019-02-26T16:31:29.675Z,15.83
2019-02-26T16:33:56.189Z,17.70
2019-02-26T16:36:25.762Z,17.30
2019-02-26T16:38:55.121Z,15.73
2019-02-26T16:41:22.710Z,16.37
2019-02-26T16:43:51.827Z,17.60
2019-02-26T16:46:20.118Z,15.53
2019-02-26T16:48:48.847Z,18.40
2019-02-26T16:51:16.643Z,15.70
2019-02-26T16:53:46.023Z,18.90
2019-02-26T16:56:13.728Z,17.27
2019-02-26T16:58:41.517Z,17.27
2019-02-26T17:01:28.861Z,19.60
2019-02-26T17:03:56.703Z,18.53
2019-02-26T17:06:24.348Z,19.50
2019-02-26T17:08:52.198Z,19.00
2019-02-26T17:11:20.108Z,17.57
2019-02-26T17:13:47.747Z,16.10
2019-02-26T17:16:17.038Z,20.97
2019-02-26T17:18:44.956Z,20.03
2019-02-26T17:21:13.703Z,15.73
2019-02-26T17:23:44.803Z,18.70
2019-02-26T17:26:19.248Z,18.33
2019-02-26T17:29:06.342Z,20.07
2019-02-26T17:31:35.290Z,17.73
2019-02-26T17:34:03.084Z,20.97
2019-02-26T17:36:32.645Z,22.43
2019-02-26T17:39:00.108Z,23.40
2019-02-26T17:41:27.728Z,17.77
2019-02-26T17:43:56.824Z,26.13
2019-02-26T17:46:25.043Z,21.63
2019-02-26T17:48:54.448Z,26.07
2019-02-26T17:51:22.070Z,18.10
2019-02-26T17:53:49.622Z,21.50
2019-02-26T17:56:17.254Z,17.63
2019-02-26T17:58:45.020Z,15.93
2019-02-26T18:01:12.814Z,16.20
2019-02-26T18:03:44.557Z,16.93
2019-02-26T18:06:10.749Z,13.03
2019-02-26T18:08:38.363Z,13.97
2019-02-26T18:11:06.054Z,13.47
2019-02-26T18:13:34.662Z,14.13
2019-02-26T18:16:09.223Z,13.30
2019-02-26T18:18:34.410Z,15.37
2019-02-26T18:21:05.715Z,15.97
2019-02-26T18:23:32.167Z,17.40
2019-02-26T18:25:59.771Z,21.53
2019-02-26T18:28:27.464Z,17.30
2019-02-26T18:30:55.198Z,19.17
2019-02-26T18:33:22.773Z,18.33
2019-02-26T18:35:50.076Z,20.63
2019-02-26T18:38:17.488Z,20.07
2019-02-26T18:40:44.937Z,18.97
2019-02-26T18:43:14.441Z,24.37
2019-02-26T18:45:41.699Z,17.47
2019-02-26T18:48:09.225Z,20.20
2019-02-26T18:50:36.620Z,19.40
2019-02-26T18:53:04.009Z,19.63
2019-02-26T18:55:32.536Z,19.77
2019-02-26T18:58:00.346Z,20.27
2019-02-26T19:00:27.831Z,19.27
2019-02-26T19:02:55.366Z,17.97
2019-02-26T19:05:23.700Z,21.40
2019-02-26T19:07:51.425Z,15.40
2019-02-26T19:10:20.866Z,22.77
2019-02-26T19:12:48.601Z,17.30
2019-02-26T19:15:16.822Z,17.60
2019-02-26T19:17:46.345Z,18.00
2019-02-26T19:20:14.914Z,18.30
2019-02-26T19:22:43.038Z,19.00
2019-02-26T19:25:10.872Z,14.97
2019-02-26T19:27:39.548Z,17.00
2019-02-26T19:30:09.999Z,16.27
2019-02-26T19:32:37.979Z,17.23
2019-02-26T19:35:12.340Z,16.70
2019-02-26T19:37:37.144Z,15.57
2019-02-26T19:40:06.553Z,15.17
2019-02-26T19:42:34.099Z,16.27
2019-02-26T19:45:03.485Z,16.13
2019-02-26T19:47:33.664Z,16.93
2019-02-26T19:50:03.038Z,15.40
2019-02-26T19:52:34.427Z,19.57
2019-02-26T19:55:02.710Z,21.63
2019-02-26T19:57:35.701Z,18.27
2019-02-26T20:00:04.022Z,19.43
2019-02-26T20:02:34.751Z,22.70
2019-02-26T20:05:02.831Z,23.53
2019-02-26T20:07:33.147Z,21.90
2019-02-26T20:10:02.197Z,20.67
2019-02-26T20:12:32.222Z,21.77
2019-02-26T20:15:02.764Z,20.50
2019-02-26T20:17:31.549Z,18.53
2019-02-26T20:19:58.967Z,20.40
2019-02-26T20:22:30.574Z,19.97
2019-02-26T20:24:58.014Z,18.93
2019-02-26T20:27:25.402Z,17.60
2019-02-26T20:29:52.735Z,18.80
2019-02-26T20:32:21.361Z,17.10
2019-02-26T20:34:48.813Z,18.70
2019-02-26T20:37:16.364Z,20.40
2019-02-26T20:39:44.249Z,19.23
2019-02-26T20:42:13.322Z,17.20
2019-02-26T20:44:45.402Z,18.60
2019-02-26T20:47:12.909Z,17.97
2019-02-26T20:49:40.315Z,20.60
2019-02-26T20:52:07.660Z,19.03
2019-02-26T20:54:35.144Z,19.23
2019-02-26T20:57:03.929Z,22.93
2019-02-26T20:59:31.882Z,20.70
2019-02-26T21:01:59.507Z,20.30
2019-02-26T21:04:30.035Z,20.20
2019-02-26T21:06:57.580Z,20.83
2019-02-26T21:09:25.143Z,19.97
2019-02-26T21:11:59.712Z,26.60
2019-02-26T21:14:27.043Z,23.03
2019-02-26T21:16:54.422Z,21.60
2019-02-26T21:19:21.808Z,20.13
2019-02-26T21:21:50.481Z,17.70
2019-02-26T21:24:17.909Z,20.73
2019-02-26T21:26:45.274Z,21.87
2019-02-26T21:29:12.876Z,20.63
2019-02-26T21:31:42.146Z,18.03
2019-02-26T21:34:09.580Z,21.03
2019-02-26T21:36:38.063Z,19.83
2019-02-26T21:39:10.767Z,25.10
2019-02-26T21:41:37.601Z,24.27
2019-02-26T21:44:08.728Z,22.10
2019-02-26T21:46:37.599Z,19.13
2019-02-26T21:49:05.045Z,22.93
2019-02-26T21:51:33.941Z,23.97
2019-02-26T21:54:01.526Z,21.30
2019-02-26T21:56:28.941Z,19.07
2019-02-26T21:58:56.967Z,17.97
2019-02-26T22:01:25.456Z,19.50
2019-02-26T22:03:52.801Z,19.30
2019-02-26T22:06:20.514Z,22.77
2019-02-26T22:08:48.002Z,19.13
2019-02-26T22:11:15.837Z,18.63
2019-02-26T22:13:44.566Z,17.27
2019-02-26T22:16:11.897Z,21.13
2019-02-26T22:18:39.211Z,23.30
2019-02-26T22:21:06.567Z,19.57
2019-02-26T22:23:34.784Z,22.87
2019-02-26T22:26:02.408Z,25.23
2019-02-26T22:28:31.546Z,27.23
2019-02-26T22:30:58.854Z,27.93
2019-02-26T22:33:26.532Z,22.30
2019-02-26T22:35:53.859Z,23.97
2019-02-26T22:38:21.287Z,21.77
2019-02-26T22:40:48.610Z,17.47
2019-02-26T22:43:16.103Z,16.60
2019-02-26T22:45:43.546Z,22.93
2019-02-26T22:48:13.425Z,19.30
2019-02-26T22:50:41.461Z,16.70
2019-02-26T22:53:08.855Z,18.03
2019-02-26T22:55:36.215Z,19.27
2019-02-26T22:58:03.561Z,18.57
2019-02-26T23:01:12.009Z,16.17
2019-02-26T23:03:45.701Z,17.93
2019-02-26T23:06:10.887Z,21.77
2019-02-26T23:08:38.523Z,22.73
2019-02-26T23:11:06.566Z,21.10
2019-02-26T23:13:33.911Z,20.10
2019-02-26T23:16:02.913Z,22.87
2019-02-26T23:18:31.631Z,25.10
2019-02-26T23:21:02.461Z,25.00
2019-02-26T23:23:31.034Z,22.87
2019-02-26T23:26:00.356Z,20.33
2019-02-26T23:28:28.034Z,18.23
2019-02-26T23:30:59.620Z,18.60
2019-02-26T23:33:25.107Z,19.83
2019-02-26T23:35:54.839Z,18.53
2019-02-26T23:38:23.653Z,18.53
2019-02-26T23:40:51.009Z,21.60
2019-02-26T23:43:18.346Z,19.17
2019-02-26T23:45:45.773Z,18.63
2019-02-26T23:48:13.278Z,16.43
2019-02-26T23:50:40.630Z,19.73
2019-02-26T23:53:08.023Z,18.60
2019-02-26T23:55:36.512Z,16.87
2019-02-26T23:58:03.989Z,16.27
